sensor_id;sensor_type;location;lat;lon;timestamp;P1;durP1;ratioP1;P2;durP2;ratioP2
803;SDS011;25687;49.976;8.240;2022-12-07T00:00:54;14.03;;;10.87;;
803;SDS011;25687;49.976;8.240;2022-12-07T00:03:20;12.40;;;10.70;;
803;SDS011;25687;49.976;8.240;2022-12-07T00:05:48;11.83;;;10.30;;
803;SDS011;25687;49.976;8.240;2022-12-07T00:08:13;14.93;;;9.30;;
803;SDS011;25687;49.976;8.240;2022-12-07T00:10:39;13.27;;;9.83;;
803;SDS011;25687;49.976;8.240;2022-12-07T00:13:04;12.87;;;9.33;;
803;SDS011;25687;49.976;8.240;2022-12-07T00:15:30;11.80;;;9.33;;
803;SDS011;25687;49.976;8.240;2022-12-07T00:18:04;12.37;;;9.17;;
803;SDS011;25687;49.976;8.240;2022-12-07T00:20:35;10.97;;;9.40;;
803;SDS011;25687;49.976;8.240;2022-12-07T00:23:00;9.73;;;8.10;;
803;SDS011;25687;49.976;8.240;2022-12-07T00:25:26;10.33;;;8.50;;
803;SDS011;25687;49.976;8.240;2022-12-07T00:27:52;14.80;;;9.37;;
803;SDS011;25687;49.976;8.240;2022-12-07T00:30:20;10.77;;;8.43;;
803;SDS011;25687;49.976;8.240;2022-12-07T00:32:46;9.53;;;8.07;;
803;SDS011;25687;49.976;8.240;2022-12-07T00:35:14;10.73;;;8.93;;
803;SDS011;25687;49.976;8.240;2022-12-07T00:37:40;9.97;;;8.03;;
803;SDS011;25687;49.976;8.240;2022-12-07T00:40:05;10.90;;;8.30;;
803;SDS011;25687;49.976;8.240;2022-12-07T00:42:31;10.90;;;7.77;;
803;SDS011;25687;49.976;8.240;2022-12-07T00:44:56;9.37;;;7.43;;
803;SDS011;25687;49.976;8.240;2022-12-07T00:47:22;8.93;;;7.87;;
803;SDS011;25687;49.976;8.240;2022-12-07T00:49:50;10.37;;;7.57;;
803;SDS011;25687;49.976;8.240;2022-12-07T00:52:15;10.07;;;8.07;;
803;SDS011;25687;49.976;8.240;2022-12-07T00:54:44;9.63;;;7.60;;
803;SDS011;25687;49.976;8.240;2022-12-07T00:57:09;9.40;;;8.00;;
803;SDS011;25687;49.976;8.240;2022-12-07T00:59:35;8.83;;;7.53;;
803;SDS011;25687;49.976;8.240;2022-12-07T01:02:00;11.10;;;7.67;;
803;SDS011;25687;49.976;8.240;2022-12-07T01:04:25;9.93;;;8.03;;
803;SDS011;25687;49.976;8.240;2022-12-07T01:06:51;9.83;;;7.83;;
803;SDS011;25687;49.976;8.240;2022-12-07T01:09:16;12.23;;;8.20;;
803;SDS011;25687;49.976;8.240;2022-12-07T01:11:42;10.27;;;7.93;;
803;SDS011;25687;49.976;8.240;2022-12-07T01:14:08;8.27;;;7.37;;
803;SDS011;25687;49.976;8.240;2022-12-07T01:16:34;8.47;;;7.43;;
803;SDS011;25687;49.976;8.240;2022-12-07T01:19:03;9.90;;;7.67;;
803;SDS011;25687;49.976;8.240;2022-12-07T01:21:30;11.90;;;8.57;;
803;SDS011;25687;49.976;8.240;2022-12-07T01:24:03;9.00;;;7.97;;
803;SDS011;25687;49.976;8.240;2022-12-07T01:26:30;10.60;;;7.33;;
803;SDS011;25687;49.976;8.240;2022-12-07T01:28:55;9.47;;;7.30;;
803;SDS011;25687;49.976;8.240;2022-12-07T01:31:23;9.70;;;7.13;;
803;SDS011;25687;49.976;8.240;2022-12-07T01:33:51;8.00;;;7.20;;
803;SDS011;25687;49.976;8.240;2022-12-07T01:38:45;9.10;;;7.80;;
803;SDS011;25687;49.976;8.240;2022-12-07T01:41:14;8.83;;;7.30;;
803;SDS011;25687;49.976;8.240;2022-12-07T01:46:35;9.10;;;8.07;;
803;SDS011;25687;49.976;8.240;2022-12-07T01:49:01;10.10;;;8.30;;
803;SDS011;25687;49.976;8.240;2022-12-07T01:51:28;9.30;;;7.57;;
803;SDS011;25687;49.976;8.240;2022-12-07T01:53:54;9.47;;;7.67;;
803;SDS011;25687;49.976;8.240;2022-12-07T01:56:24;9.43;;;8.40;;
803;SDS011;25687;49.976;8.240;2022-12-07T01:58:52;8.57;;;7.20;;
803;SDS011;25687;49.976;8.240;2022-12-07T02:01:23;8.10;;;7.30;;
803;SDS011;25687;49.976;8.240;2022-12-07T02:03:49;9.67;;;7.97;;
803;SDS011;25687;49.976;8.240;2022-12-07T02:06:16;9.50;;;8.27;;
803;SDS011;25687;49.976;8.240;2022-12-07T02:08:44;8.90;;;8.00;;
803;SDS011;25687;49.976;8.240;2022-12-07T02:11:10;8.93;;;7.73;;
803;SDS011;25687;49.976;8.240;2022-12-07T02:13:37;9.30;;;7.17;;
803;SDS011;25687;49.976;8.240;2022-12-07T02:16:21;10.60;;;7.57;;
803;SDS011;25687;49.976;8.240;2022-12-07T02:22:01;10.40;;;8.10;;
803;SDS011;25687;49.976;8.240;2022-12-07T02:30:13;8.20;;;7.30;;
803;SDS011;25687;49.976;8.240;2022-12-07T02:38:13;9.33;;;7.87;;
803;SDS011;25687;49.976;8.240;2022-12-07T02:43:19;8.83;;;7.63;;
803;SDS011;25687;49.976;8.240;2022-12-07T02:46:06;9.20;;;7.30;;
803;SDS011;25687;49.976;8.240;2022-12-07T02:48:40;11.93;;;6.63;;
803;SDS011;25687;49.976;8.240;2022-12-07T02:51:08;9.50;;;7.10;;
803;SDS011;25687;49.976;8.240;2022-12-07T02:53:41;12.17;;;7.20;;
803;SDS011;25687;49.976;8.240;2022-12-07T02:58:53;8.30;;;7.07;;
803;SDS011;25687;49.976;8.240;2022-12-07T03:01:40;7.90;;;7.10;;
803;SDS011;25687;49.976;8.240;2022-12-07T03:07:05;8.60;;;6.63;;
803;SDS011;25687;49.976;8.240;2022-12-07T03:09:44;9.20;;;6.57;;
803;SDS011;25687;49.976;8.240;2022-12-07T03:12:44;7.80;;;6.47;;
803;SDS011;25687;49.976;8.240;2022-12-07T03:18:20;7.47;;;6.70;;
803;SDS011;25687;49.976;8.240;2022-12-07T03:20:49;8.70;;;6.57;;
803;SDS011;25687;49.976;8.240;2022-12-07T03:23:17;10.07;;;7.00;;
803;SDS011;25687;49.976;8.240;2022-12-07T03:25:45;8.57;;;6.03;;
803;SDS011;25687;49.976;8.240;2022-12-07T03:28:19;7.93;;;6.57;;
803;SDS011;25687;49.976;8.240;2022-12-07T03:33:51;9.57;;;5.83;;
803;SDS011;25687;49.976;8.240;2022-12-07T03:36:55;7.90;;;6.70;;
803;SDS011;25687;49.976;8.240;2022-12-07T03:39:50;9.57;;;6.93;;
803;SDS011;25687;49.976;8.240;2022-12-07T03:42:25;9.17;;;6.60;;
803;SDS011;25687;49.976;8.240;2022-12-07T03:44:54;7.47;;;6.67;;
803;SDS011;25687;49.976;8.240;2022-12-07T03:47:27;7.57;;;6.77;;
803;SDS011;25687;49.976;8.240;2022-12-07T03:49:58;7.90;;;6.60;;
803;SDS011;25687;49.976;8.240;2022-12-07T03:55:00;9.83;;;7.23;;
803;SDS011;25687;49.976;8.240;2022-12-07T03:57:33;9.67;;;8.03;;
803;SDS011;25687;49.976;8.240;2022-12-07T04:00:04;10.57;;;7.83;;
803;SDS011;25687;49.976;8.240;2022-12-07T04:02:32;10.33;;;8.23;;
803;SDS011;25687;49.976;8.240;2022-12-07T04:04:58;9.10;;;7.77;;
803;SDS011;25687;49.976;8.240;2022-12-07T04:07:24;11.43;;;8.27;;
803;SDS011;25687;49.976;8.240;2022-12-07T04:09:50;9.17;;;8.20;;
803;SDS011;25687;49.976;8.240;2022-12-07T04:12:15;8.40;;;7.47;;
803;SDS011;25687;49.976;8.240;2022-12-07T04:14:40;8.60;;;7.00;;
803;SDS011;25687;49.976;8.240;2022-12-07T04:17:06;7.93;;;7.03;;
803;SDS011;25687;49.976;8.240;2022-12-07T04:19:32;9.40;;;7.40;;
803;SDS011;25687;49.976;8.240;2022-12-07T04:22:01;8.27;;;6.60;;
803;SDS011;25687;49.976;8.240;2022-12-07T04:24:29;9.07;;;6.97;;
803;SDS011;25687;49.976;8.240;2022-12-07T04:26:55;8.90;;;7.50;;
803;SDS011;25687;49.976;8.240;2022-12-07T04:29:23;8.70;;;6.80;;
803;SDS011;25687;49.976;8.240;2022-12-07T04:31:49;10.73;;;7.47;;
803;SDS011;25687;49.976;8.240;2022-12-07T04:34:15;9.50;;;7.50;;
803;SDS011;25687;49.976;8.240;2022-12-07T04:36:42;9.57;;;7.60;;
803;SDS011;25687;49.976;8.240;2022-12-07T04:39:13;9.13;;;8.23;;
803;SDS011;25687;49.976;8.240;2022-12-07T04:41:43;10.73;;;7.67;;
803;SDS011;25687;49.976;8.240;2022-12-07T04:44:09;13.87;;;8.57;;
803;SDS011;25687;49.976;8.240;2022-12-07T04:46:34;10.27;;;9.17;;
803;SDS011;25687;49.976;8.240;2022-12-07T04:49:00;10.13;;;8.37;;
803;SDS011;25687;49.976;8.240;2022-12-07T04:51:26;10.20;;;9.20;;
803;SDS011;25687;49.976;8.240;2022-12-07T04:53:53;9.50;;;8.47;;
803;SDS011;25687;49.976;8.240;2022-12-07T04:56:22;13.20;;;8.90;;
803;SDS011;25687;49.976;8.240;2022-12-07T04:58:49;9.67;;;8.60;;
803;SDS011;25687;49.976;8.240;2022-12-07T05:01:17;10.40;;;8.87;;
803;SDS011;25687;49.976;8.240;2022-12-07T05:03:53;10.30;;;9.20;;
803;SDS011;25687;49.976;8.240;2022-12-07T05:06:30;9.17;;;8.27;;
803;SDS011;25687;49.976;8.240;2022-12-07T05:09:05;9.47;;;8.13;;
803;SDS011;25687;49.976;8.240;2022-12-07T05:11:31;10.00;;;8.70;;
803;SDS011;25687;49.976;8.240;2022-12-07T05:14:03;11.00;;;8.63;;
803;SDS011;25687;49.976;8.240;2022-12-07T05:16:42;11.43;;;9.60;;
803;SDS011;25687;49.976;8.240;2022-12-07T05:19:09;9.73;;;8.73;;
803;SDS011;25687;49.976;8.240;2022-12-07T05:21:35;12.27;;;9.00;;
803;SDS011;25687;49.976;8.240;2022-12-07T05:24:00;13.17;;;8.93;;
803;SDS011;25687;49.976;8.240;2022-12-07T05:26:26;9.60;;;8.50;;
803;SDS011;25687;49.976;8.240;2022-12-07T05:28:58;12.70;;;9.37;;
803;SDS011;25687;49.976;8.240;2022-12-07T05:31:27;12.47;;;8.83;;
803;SDS011;25687;49.976;8.240;2022-12-07T05:33:53;11.47;;;9.63;;
803;SDS011;25687;49.976;8.240;2022-12-07T05:36:19;10.53;;;9.43;;
803;SDS011;25687;49.976;8.240;2022-12-07T05:38:48;12.00;;;10.13;;
803;SDS011;25687;49.976;8.240;2022-12-07T05:41:14;10.27;;;9.27;;
803;SDS011;25687;49.976;8.240;2022-12-07T05:44:00;12.03;;;9.80;;
803;SDS011;25687;49.976;8.240;2022-12-07T05:46:26;10.80;;;9.70;;
803;SDS011;25687;49.976;8.240;2022-12-07T05:48:51;13.20;;;9.97;;
803;SDS011;25687;49.976;8.240;2022-12-07T05:51:17;11.93;;;9.43;;
803;SDS011;25687;49.976;8.240;2022-12-07T05:53:43;12.37;;;9.80;;
803;SDS011;25687;49.976;8.240;2022-12-07T05:56:12;9.93;;;8.90;;
803;SDS011;25687;49.976;8.240;2022-12-07T05:58:49;13.17;;;10.67;;
803;SDS011;25687;49.976;8.240;2022-12-07T06:01:33;11.43;;;9.57;;
803;SDS011;25687;49.976;8.240;2022-12-07T06:03:58;12.90;;;9.73;;
803;SDS011;25687;49.976;8.240;2022-12-07T06:06:24;11.97;;;9.93;;
803;SDS011;25687;49.976;8.240;2022-12-07T06:08:50;13.50;;;9.80;;
803;SDS011;25687;49.976;8.240;2022-12-07T06:11:15;13.77;;;8.90;;
803;SDS011;25687;49.976;8.240;2022-12-07T06:14:00;10.03;;;9.03;;
803;SDS011;25687;49.976;8.240;2022-12-07T06:16:25;11.37;;;9.70;;
803;SDS011;25687;49.976;8.240;2022-12-07T06:18:50;11.60;;;10.03;;
803;SDS011;25687;49.976;8.240;2022-12-07T06:21:16;11.83;;;10.33;;
803;SDS011;25687;49.976;8.240;2022-12-07T06:23:43;10.07;;;9.07;;
803;SDS011;25687;49.976;8.240;2022-12-07T06:26:09;10.23;;;9.00;;
803;SDS011;25687;49.976;8.240;2022-12-07T06:28:34;11.43;;;9.60;;
803;SDS011;25687;49.976;8.240;2022-12-07T06:31:00;10.40;;;8.47;;
803;SDS011;25687;49.976;8.240;2022-12-07T06:33:26;13.17;;;8.37;;
803;SDS011;25687;49.976;8.240;2022-12-07T06:35:52;12.33;;;9.40;;
803;SDS011;25687;49.976;8.240;2022-12-07T06:38:18;12.50;;;9.13;;
803;SDS011;25687;49.976;8.240;2022-12-07T06:40:43;10.67;;;9.57;;
803;SDS011;25687;49.976;8.240;2022-12-07T06:43:09;11.40;;;9.50;;
803;SDS011;25687;49.976;8.240;2022-12-07T06:45:34;10.97;;;8.97;;
803;SDS011;25687;49.976;8.240;2022-12-07T06:47:59;8.93;;;8.03;;
803;SDS011;25687;49.976;8.240;2022-12-07T06:50:24;9.60;;;8.67;;
803;SDS011;25687;49.976;8.240;2022-12-07T06:52:50;11.63;;;10.17;;
803;SDS011;25687;49.976;8.240;2022-12-07T06:55:16;12.47;;;8.97;;
803;SDS011;25687;49.976;8.240;2022-12-07T06:57:41;12.47;;;9.57;;
803;SDS011;25687;49.976;8.240;2022-12-07T07:00:07;12.40;;;10.27;;
803;SDS011;25687;49.976;8.240;2022-12-07T07:02:32;13.40;;;11.73;;
803;SDS011;25687;49.976;8.240;2022-12-07T07:04:58;11.20;;;9.47;;
803;SDS011;25687;49.976;8.240;2022-12-07T07:07:23;11.87;;;9.90;;
803;SDS011;25687;49.976;8.240;2022-12-07T07:09:48;11.53;;;9.57;;
803;SDS011;25687;49.976;8.240;2022-12-07T07:12:13;10.77;;;9.27;;
803;SDS011;25687;49.976;8.240;2022-12-07T07:14:39;11.00;;;8.63;;
803;SDS011;25687;49.976;8.240;2022-12-07T07:17:04;12.23;;;8.53;;
803;SDS011;25687;49.976;8.240;2022-12-07T07:19:29;10.63;;;9.30;;
803;SDS011;25687;49.976;8.240;2022-12-07T07:21:55;12.47;;;9.33;;
803;SDS011;25687;49.976;8.240;2022-12-07T07:24:20;11.50;;;9.27;;
803;SDS011;25687;49.976;8.240;2022-12-07T07:26:45;10.73;;;9.10;;
803;SDS011;25687;49.976;8.240;2022-12-07T07:29:10;12.27;;;8.90;;
803;SDS011;25687;49.976;8.240;2022-12-07T07:31:36;8.70;;;7.53;;
803;SDS011;25687;49.976;8.240;2022-12-07T07:34:02;10.60;;;9.00;;
803;SDS011;25687;49.976;8.240;2022-12-07T07:36:27;14.43;;;9.20;;
803;SDS011;25687;49.976;8.240;2022-12-07T07:38:52;12.50;;;9.53;;
803;SDS011;25687;49.976;8.240;2022-12-07T07:41:18;12.43;;;10.50;;
803;SDS011;25687;49.976;8.240;2022-12-07T07:43:43;8.90;;;7.37;;
803;SDS011;25687;49.976;8.240;2022-12-07T07:46:08;9.57;;;7.80;;
803;SDS011;25687;49.976;8.240;2022-12-07T07:48:34;9.20;;;7.90;;
803;SDS011;25687;49.976;8.240;2022-12-07T07:50:59;8.83;;;7.93;;
803;SDS011;25687;49.976;8.240;2022-12-07T07:53:25;8.70;;;7.40;;
803;SDS011;25687;49.976;8.240;2022-12-07T07:55:51;8.33;;;7.47;;
803;SDS011;25687;49.976;8.240;2022-12-07T07:58:19;9.63;;;8.20;;
803;SDS011;25687;49.976;8.240;2022-12-07T08:00:45;8.20;;;7.40;;
803;SDS011;25687;49.976;8.240;2022-12-07T08:03:10;8.17;;;6.87;;
803;SDS011;25687;49.976;8.240;2022-12-07T08:05:36;7.60;;;6.70;;
803;SDS011;25687;49.976;8.240;2022-12-07T08:08:02;9.27;;;7.17;;
803;SDS011;25687;49.976;8.240;2022-12-07T08:10:27;8.50;;;7.30;;
803;SDS011;25687;49.976;8.240;2022-12-07T08:12:53;8.47;;;7.07;;
803;SDS011;25687;49.976;8.240;2022-12-07T08:15:39;7.70;;;6.90;;
803;SDS011;25687;49.976;8.240;2022-12-07T08:18:06;8.93;;;7.60;;
803;SDS011;25687;49.976;8.240;2022-12-07T08:20:31;7.77;;;6.97;;
803;SDS011;25687;49.976;8.240;2022-12-07T08:22:58;8.60;;;7.73;;
803;SDS011;25687;49.976;8.240;2022-12-07T08:25:24;9.40;;;7.90;;
803;SDS011;25687;49.976;8.240;2022-12-07T08:27:49;9.03;;;7.13;;
803;SDS011;25687;49.976;8.240;2022-12-07T08:30:15;18.27;;;13.17;;
803;SDS011;25687;49.976;8.240;2022-12-07T08:32:41;8.13;;;7.10;;
803;SDS011;25687;49.976;8.240;2022-12-07T08:35:06;8.23;;;7.43;;
803;SDS011;25687;49.976;8.240;2022-12-07T08:37:32;6.93;;;6.23;;
803;SDS011;25687;49.976;8.240;2022-12-07T08:39:58;8.80;;;7.10;;
803;SDS011;25687;49.976;8.240;2022-12-07T08:42:23;7.07;;;6.37;;
803;SDS011;25687;49.976;8.240;2022-12-07T08:44:54;7.77;;;6.97;;
803;SDS011;25687;49.976;8.240;2022-12-07T08:47:21;8.77;;;6.50;;
803;SDS011;25687;49.976;8.240;2022-12-07T08:49:47;7.67;;;6.33;;
803;SDS011;25687;49.976;8.240;2022-12-07T08:52:14;7.37;;;6.67;;
803;SDS011;25687;49.976;8.240;2022-12-07T08:54:40;7.13;;;5.70;;
803;SDS011;25687;49.976;8.240;2022-12-07T08:57:07;5.43;;;4.93;;
803;SDS011;25687;49.976;8.240;2022-12-07T08:59:34;8.23;;;7.00;;
803;SDS011;25687;49.976;8.240;2022-12-07T09:02:01;11.60;;;6.70;;
803;SDS011;25687;49.976;8.240;2022-12-07T09:04:27;8.33;;;6.97;;
803;SDS011;25687;49.976;8.240;2022-12-07T09:06:53;10.20;;;8.57;;
803;SDS011;25687;49.976;8.240;2022-12-07T09:09:19;9.87;;;8.83;;
803;SDS011;25687;49.976;8.240;2022-12-07T09:11:44;11.53;;;7.50;;
803;SDS011;25687;49.976;8.240;2022-12-07T09:14:10;8.20;;;6.93;;
803;SDS011;25687;49.976;8.240;2022-12-07T09:16:35;7.30;;;6.17;;
803;SDS011;25687;49.976;8.240;2022-12-07T09:19:01;7.60;;;6.80;;
803;SDS011;25687;49.976;8.240;2022-12-07T09:21:26;7.33;;;6.33;;
803;SDS011;25687;49.976;8.240;2022-12-07T09:23:51;10.67;;;9.57;;
803;SDS011;25687;49.976;8.240;2022-12-07T09:26:17;8.43;;;7.63;;
803;SDS011;25687;49.976;8.240;2022-12-07T09:28:42;8.67;;;5.33;;
803;SDS011;25687;49.976;8.240;2022-12-07T09:31:08;6.93;;;6.23;;
803;SDS011;25687;49.976;8.240;2022-12-07T09:33:33;5.70;;;3.77;;
803;SDS011;25687;49.976;8.240;2022-12-07T09:35:58;6.53;;;4.30;;
803;SDS011;25687;49.976;8.240;2022-12-07T09:38:24;6.67;;;3.90;;
803;SDS011;25687;49.976;8.240;2022-12-07T09:40:51;5.20;;;4.00;;
803;SDS011;25687;49.976;8.240;2022-12-07T09:43:20;6.13;;;4.03;;
803;SDS011;25687;49.976;8.240;2022-12-07T09:45:49;3.93;;;3.23;;
803;SDS011;25687;49.976;8.240;2022-12-07T09:48:19;3.60;;;3.13;;
803;SDS011;25687;49.976;8.240;2022-12-07T09:50:47;5.70;;;3.90;;
803;SDS011;25687;49.976;8.240;2022-12-07T09:53:20;4.63;;;3.57;;
803;SDS011;25687;49.976;8.240;2022-12-07T09:55:55;6.20;;;3.40;;
803;SDS011;25687;49.976;8.240;2022-12-07T09:58:25;5.20;;;3.70;;
803;SDS011;25687;49.976;8.240;2022-12-07T10:00:56;7.27;;;3.80;;
803;SDS011;25687;49.976;8.240;2022-12-07T10:03:28;4.83;;;4.00;;
803;SDS011;25687;49.976;8.240;2022-12-07T10:05:54;4.83;;;3.53;;
803;SDS011;25687;49.976;8.240;2022-12-07T10:08:20;4.73;;;4.10;;
803;SDS011;25687;49.976;8.240;2022-12-07T10:10:47;4.27;;;3.30;;
803;SDS011;25687;49.976;8.240;2022-12-07T10:13:20;4.60;;;3.50;;
803;SDS011;25687;49.976;8.240;2022-12-07T10:20:48;4.17;;;3.40;;
803;SDS011;25687;49.976;8.240;2022-12-07T10:23:14;8.37;;;4.57;;
803;SDS011;25687;49.976;8.240;2022-12-07T10:25:41;5.27;;;3.70;;
803;SDS011;25687;49.976;8.240;2022-12-07T10:30:33;4.87;;;3.37;;
803;SDS011;25687;49.976;8.240;2022-12-07T10:33:33;3.20;;;2.90;;
803;SDS011;25687;49.976;8.240;2022-12-07T10:36:14;4.70;;;3.43;;
803;SDS011;25687;49.976;8.240;2022-12-07T10:38:44;5.10;;;3.00;;
803;SDS011;25687;49.976;8.240;2022-12-07T10:41:11;3.37;;;2.63;;
803;SDS011;25687;49.976;8.240;2022-12-07T10:43:37;6.20;;;3.03;;
803;SDS011;25687;49.976;8.240;2022-12-07T10:48:59;6.97;;;3.20;;
803;SDS011;25687;49.976;8.240;2022-12-07T10:51:33;4.73;;;2.73;;
803;SDS011;25687;49.976;8.240;2022-12-07T11:02:24;3.07;;;2.60;;
803;SDS011;25687;49.976;8.240;2022-12-07T11:18:13;4.10;;;2.30;;
803;SDS011;25687;49.976;8.240;2022-12-07T11:20:54;3.87;;;2.23;;
803;SDS011;25687;49.976;8.240;2022-12-07T11:23:48;5.37;;;2.80;;
803;SDS011;25687;49.976;8.240;2022-12-07T11:26:25;4.23;;;1.93;;
803;SDS011;25687;49.976;8.240;2022-12-07T11:31:41;4.57;;;2.20;;
803;SDS011;25687;49.976;8.240;2022-12-07T11:34:15;4.47;;;2.03;;
803;SDS011;25687;49.976;8.240;2022-12-07T11:36:57;3.13;;;1.80;;
803;SDS011;25687;49.976;8.240;2022-12-07T11:42:10;4.23;;;1.50;;
803;SDS011;25687;49.976;8.240;2022-12-07T11:44:48;4.87;;;2.00;;
803;SDS011;25687;49.976;8.240;2022-12-07T11:52:42;3.30;;;1.80;;
803;SDS011;25687;49.976;8.240;2022-12-07T11:55:19;2.83;;;1.60;;
803;SDS011;25687;49.976;8.240;2022-12-07T11:57:54;2.57;;;1.67;;
803;SDS011;25687;49.976;8.240;2022-12-07T12:00:26;5.07;;;1.80;;
803;SDS011;25687;49.976;8.240;2022-12-07T12:03:01;3.43;;;1.97;;
803;SDS011;25687;49.976;8.240;2022-12-07T12:05:30;4.37;;;2.63;;
803;SDS011;25687;49.976;8.240;2022-12-07T12:08:02;1.93;;;1.70;;
803;SDS011;25687;49.976;8.240;2022-12-07T12:16:27;4.50;;;2.20;;
803;SDS011;25687;49.976;8.240;2022-12-07T12:19:11;3.70;;;2.00;;
803;SDS011;25687;49.976;8.240;2022-12-07T12:21:47;4.23;;;2.60;;
803;SDS011;25687;49.976;8.240;2022-12-07T12:24:19;4.07;;;2.03;;
803;SDS011;25687;49.976;8.240;2022-12-07T12:26:51;3.90;;;2.40;;
803;SDS011;25687;49.976;8.240;2022-12-07T12:29:24;5.63;;;2.17;;
803;SDS011;25687;49.976;8.240;2022-12-07T12:32:13;6.77;;;2.30;;
803;SDS011;25687;49.976;8.240;2022-12-07T12:42:58;5.50;;;2.30;;
803;SDS011;25687;49.976;8.240;2022-12-07T12:45:32;7.50;;;3.00;;
803;SDS011;25687;49.976;8.240;2022-12-07T12:47:59;5.87;;;2.43;;
803;SDS011;25687;49.976;8.240;2022-12-07T12:50:26;4.97;;;2.10;;
803;SDS011;25687;49.976;8.240;2022-12-07T12:53:12;4.27;;;2.10;;
803;SDS011;25687;49.976;8.240;2022-12-07T13:00:46;5.73;;;2.33;;
803;SDS011;25687;49.976;8.240;2022-12-07T13:03:24;5.03;;;1.97;;
803;SDS011;25687;49.976;8.240;2022-12-07T13:08:55;7.67;;;2.17;;
803;SDS011;25687;49.976;8.240;2022-12-07T13:11:33;10.87;;;2.10;;
803;SDS011;25687;49.976;8.240;2022-12-07T13:17:02;3.17;;;1.90;;
803;SDS011;25687;49.976;8.240;2022-12-07T13:24:59;3.27;;;1.83;;
803;SDS011;25687;49.976;8.240;2022-12-07T13:27:32;2.90;;;2.03;;
803;SDS011;25687;49.976;8.240;2022-12-07T13:29:59;4.23;;;2.10;;
803;SDS011;25687;49.976;8.240;2022-12-07T13:32:28;5.30;;;2.03;;
803;SDS011;25687;49.976;8.240;2022-12-07T13:34:55;3.63;;;1.70;;
803;SDS011;25687;49.976;8.240;2022-12-07T13:37:23;3.27;;;1.67;;
803;SDS011;25687;49.976;8.240;2022-12-07T13:39:52;2.97;;;2.20;;
803;SDS011;25687;49.976;8.240;2022-12-07T13:42:28;3.77;;;1.70;;
803;SDS011;25687;49.976;8.240;2022-12-07T13:44:55;3.60;;;1.60;;
803;SDS011;25687;49.976;8.240;2022-12-07T13:49:58;2.50;;;1.60;;
803;SDS011;25687;49.976;8.240;2022-12-07T13:52:24;4.00;;;1.93;;
803;SDS011;25687;49.976;8.240;2022-12-07T13:54:56;4.20;;;2.03;;
803;SDS011;25687;49.976;8.240;2022-12-07T13:57:26;2.67;;;1.80;;
803;SDS011;25687;49.976;8.240;2022-12-07T13:59:55;4.83;;;2.53;;
803;SDS011;25687;49.976;8.240;2022-12-07T14:02:24;4.17;;;2.10;;
803;SDS011;25687;49.976;8.240;2022-12-07T14:08:40;3.60;;;2.03;;
803;SDS011;25687;49.976;8.240;2022-12-07T14:16:01;4.30;;;1.70;;
803;SDS011;25687;49.976;8.240;2022-12-07T14:18:29;5.63;;;2.07;;
803;SDS011;25687;49.976;8.240;2022-12-07T14:21:04;3.70;;;2.03;;
803;SDS011;25687;49.976;8.240;2022-12-07T14:24:02;3.67;;;1.63;;
803;SDS011;25687;49.976;8.240;2022-12-07T14:26:56;4.17;;;2.13;;
803;SDS011;25687;49.976;8.240;2022-12-07T14:31:49;3.43;;;1.70;;
803;SDS011;25687;49.976;8.240;2022-12-07T14:34:15;4.10;;;2.07;;
803;SDS011;25687;49.976;8.240;2022-12-07T14:36:40;4.57;;;2.00;;
803;SDS011;25687;49.976;8.240;2022-12-07T14:39:06;3.33;;;1.80;;
803;SDS011;25687;49.976;8.240;2022-12-07T14:41:31;3.17;;;1.70;;
803;SDS011;25687;49.976;8.240;2022-12-07T14:44:15;3.30;;;1.83;;
803;SDS011;25687;49.976;8.240;2022-12-07T14:46:40;4.50;;;1.83;;
803;SDS011;25687;49.976;8.240;2022-12-07T14:49:05;4.70;;;1.80;;
803;SDS011;25687;49.976;8.240;2022-12-07T14:51:31;3.70;;;1.70;;
803;SDS011;25687;49.976;8.240;2022-12-07T14:53:58;5.20;;;1.83;;
803;SDS011;25687;49.976;8.240;2022-12-07T14:56:24;3.07;;;1.83;;
803;SDS011;25687;49.976;8.240;2022-12-07T14:58:49;2.50;;;1.83;;
803;SDS011;25687;49.976;8.240;2022-12-07T15:01:15;4.57;;;1.60;;
803;SDS011;25687;49.976;8.240;2022-12-07T15:03:40;3.00;;;1.90;;
803;SDS011;25687;49.976;8.240;2022-12-07T15:06:06;3.67;;;2.10;;
803;SDS011;25687;49.976;8.240;2022-12-07T15:08:32;6.67;;;1.70;;
803;SDS011;25687;49.976;8.240;2022-12-07T15:10:58;4.30;;;2.20;;
803;SDS011;25687;49.976;8.240;2022-12-07T15:13:24;6.47;;;2.10;;
803;SDS011;25687;49.976;8.240;2022-12-07T15:16:10;3.40;;;2.23;;
803;SDS011;25687;49.976;8.240;2022-12-07T15:18:38;3.63;;;1.80;;
803;SDS011;25687;49.976;8.240;2022-12-07T15:21:04;5.50;;;2.23;;
803;SDS011;25687;49.976;8.240;2022-12-07T15:23:29;4.07;;;2.23;;
803;SDS011;25687;49.976;8.240;2022-12-07T15:25:56;3.57;;;1.60;;
803;SDS011;25687;49.976;8.240;2022-12-07T15:28:21;3.23;;;1.90;;
803;SDS011;25687;49.976;8.240;2022-12-07T15:30:46;5.43;;;2.40;;
803;SDS011;25687;49.976;8.240;2022-12-07T15:33:12;5.20;;;2.17;;
803;SDS011;25687;49.976;8.240;2022-12-07T15:35:41;3.53;;;2.07;;
803;SDS011;25687;49.976;8.240;2022-12-07T15:38:10;2.77;;;2.00;;
803;SDS011;25687;49.976;8.240;2022-12-07T15:40:36;5.13;;;2.30;;
803;SDS011;25687;49.976;8.240;2022-12-07T15:43:01;3.27;;;2.20;;
803;SDS011;25687;49.976;8.240;2022-12-07T15:45:27;5.07;;;2.43;;
803;SDS011;25687;49.976;8.240;2022-12-07T15:47:52;3.80;;;2.13;;
803;SDS011;25687;49.976;8.240;2022-12-07T15:50:20;5.17;;;2.40;;
803;SDS011;25687;49.976;8.240;2022-12-07T15:52:46;5.63;;;2.20;;
803;SDS011;25687;49.976;8.240;2022-12-07T15:55:12;6.73;;;2.40;;
803;SDS011;25687;49.976;8.240;2022-12-07T15:57:38;7.90;;;2.23;;
803;SDS011;25687;49.976;8.240;2022-12-07T16:00:08;4.73;;;2.13;;
803;SDS011;25687;49.976;8.240;2022-12-07T16:02:38;2.57;;;1.83;;
803;SDS011;25687;49.976;8.240;2022-12-07T16:05:04;4.67;;;2.40;;
803;SDS011;25687;49.976;8.240;2022-12-07T16:07:29;4.10;;;2.40;;
803;SDS011;25687;49.976;8.240;2022-12-07T16:09:54;3.70;;;2.27;;
803;SDS011;25687;49.976;8.240;2022-12-07T16:12:20;3.80;;;2.43;;
803;SDS011;25687;49.976;8.240;2022-12-07T16:14:45;3.63;;;2.10;;
803;SDS011;25687;49.976;8.240;2022-12-07T16:17:10;3.00;;;2.70;;
803;SDS011;25687;49.976;8.240;2022-12-07T16:19:36;3.60;;;2.20;;
803;SDS011;25687;49.976;8.240;2022-12-07T16:22:02;3.83;;;2.50;;
803;SDS011;25687;49.976;8.240;2022-12-07T16:24:28;3.47;;;2.23;;
803;SDS011;25687;49.976;8.240;2022-12-07T16:26:53;5.33;;;3.07;;
803;SDS011;25687;49.976;8.240;2022-12-07T16:29:20;6.37;;;3.00;;
803;SDS011;25687;49.976;8.240;2022-12-07T16:31:49;4.67;;;2.23;;
803;SDS011;25687;49.976;8.240;2022-12-07T16:34:16;8.07;;;2.87;;
803;SDS011;25687;49.976;8.240;2022-12-07T16:36:49;4.33;;;2.13;;
803;SDS011;25687;49.976;8.240;2022-12-07T16:39:15;2.83;;;2.27;;
803;SDS011;25687;49.976;8.240;2022-12-07T16:41:40;6.17;;;3.30;;
803;SDS011;25687;49.976;8.240;2022-12-07T16:44:06;8.17;;;3.80;;
803;SDS011;25687;49.976;8.240;2022-12-07T16:46:34;12.00;;;3.80;;
803;SDS011;25687;49.976;8.240;2022-12-07T16:49:01;6.90;;;3.90;;
803;SDS011;25687;49.976;8.240;2022-12-07T16:51:27;9.07;;;3.83;;
803;SDS011;25687;49.976;8.240;2022-12-07T16:53:53;5.27;;;3.70;;
803;SDS011;25687;49.976;8.240;2022-12-07T16:56:22;6.80;;;3.83;;
803;SDS011;25687;49.976;8.240;2022-12-07T16:58:47;7.63;;;3.50;;
803;SDS011;25687;49.976;8.240;2022-12-07T17:01:23;4.27;;;3.20;;
803;SDS011;25687;49.976;8.240;2022-12-07T17:03:49;4.70;;;3.37;;
803;SDS011;25687;49.976;8.240;2022-12-07T17:08:42;4.07;;;2.97;;
803;SDS011;25687;49.976;8.240;2022-12-07T17:11:09;4.63;;;2.87;;
803;SDS011;25687;49.976;8.240;2022-12-07T17:13:41;5.50;;;2.80;;
803;SDS011;25687;49.976;8.240;2022-12-07T17:16:25;6.50;;;3.33;;
803;SDS011;25687;49.976;8.240;2022-12-07T17:18:51;8.47;;;4.07;;
803;SDS011;25687;49.976;8.240;2022-12-07T17:21:16;5.03;;;3.77;;
803;SDS011;25687;49.976;8.240;2022-12-07T17:23:42;5.63;;;3.70;;
803;SDS011;25687;49.976;8.240;2022-12-07T17:26:09;5.90;;;3.90;;